Time;durP1;ratioP1;P1;durP2;ratioP2;P2;SDS_P1;SDS_P2;PMS_P1;PMS_P2;Temp;Humidity;BMP_temperature;BMP_pressure;BME280_temperature;BME280_humidity;BME280_pressure;Samples;Min_cycle;Max_cycle;Signal;HPM_P1;HPM_P2
2022/05/15 00:01:47;;;;;;;;;7.50;6.50;;;;;19.04;42.93;101560.47;4993879;28;49699;-72
2022/05/15 00:04:13;;;;;;;;;6.75;6.25;;;;;19.00;43.21;101549.81;4992932;28;49655;-70
2022/05/15 00:06:38;;;;;;;;;4.50;4.50;;;;;18.98;43.34;101546.25;4994266;28;49780;-74
2022/05/15 00:09:04;;;;;;;;;6.25;3.75;;;;;18.99;43.36;101548.03;4994220;28;49638;-72
2022/05/15 00:11:30;;;;;;;;;6.50;6.50;;;;;19.02;43.42;101542.72;4976726;28;49927;-71
2022/05/15 00:13:57;;;;;;;;;5.00;5.00;;;;;19.01;43.79;101540.94;4993874;28;50322;-64
2022/05/15 00:16:23;;;;;;;;;10.00;7.00;;;;;18.99;43.85;101543.59;4990762;28;49757;-64
2022/05/15 00:18:50;;;;;;;;;4.25;4.25;;;;;18.99;43.68;101532.06;4994316;28;49890;-64
2022/05/15 00:21:16;;;;;;;;;5.50;5.50;;;;;18.99;43.91;101529.41;4993741;28;49932;-69
2022/05/15 00:23:41;;;;;;;;;5.50;5.50;;;;;18.88;43.90;101505.47;4994053;28;49757;-70
2022/05/15 00:26:07;;;;;;;;;6.25;5.00;;;;;18.93;43.95;101519.69;4976595;28;49697;-73
2022/05/15 00:28:32;;;;;;;;;6.75;5.00;;;;;18.92;44.05;101515.25;4993803;28;50846;-67
2022/05/15 00:30:57;;;;;;;;;4.75;4.75;;;;;18.83;44.06;101508.16;4994205;28;49932;-65
2022/05/15 00:33:23;;;;;;;;;7.00;6.00;;;;;18.79;44.24;101505.50;4993841;28;50388;-67
2022/05/15 00:35:48;;;;;;;;;5.00;5.00;;;;;18.83;44.47;101508.16;4993871;28;49860;-73
2022/05/15 00:38:14;;;;;;;;;4.00;4.00;;;;;18.80;44.52;101505.47;4993910;28;49591;-69
2022/05/15 00:40:42;;;;;;;;;6.25;5.25;;;;;18.70;44.50;101495.75;4993776;28;49667;-69
2022/05/15 00:43:13;;;;;;;;;4.50;4.50;;;;;18.70;45.00;101502.84;4993739;28;49737;-73
2022/05/15 00:45:39;;;;;;;;;7.50;7.25;;;;;18.72;44.84;101514.34;4993810;28;49650;-72
2022/05/15 00:48:04;;;;;;;;;8.00;7.50;;;;;18.72;44.98;101509.97;4993882;28;49855;-69
2022/05/15 00:50:33;;;;;;;;;11.00;10.25;;;;;18.70;45.36;101503.72;4993541;28;49709;-64
2022/05/15 00:53:05;;;;;;;;;12.00;10.50;;;;;18.68;45.50;101505.50;4993199;28;49868;-72
2022/05/15 00:55:44;;;;;;;;;18.50;13.75;;;;;18.60;45.25;101486.84;4993496;28;49843;-69
2022/05/15 00:58:17;;;;;;;;;21.00;18.25;;;;;18.54;45.89;101484.22;4993800;28;49710;-71
2022/05/15 01:00:43;;;;;;;;;22.25;17.50;;;;;18.59;45.75;101494.84;4993069;28;49746;-67
2022/05/15 01:03:14;;;;;;;;;25.00;24.25;;;;;18.56;45.98;101492.19;4993382;28;49690;-70
2022/05/15 01:05:43;;;;;;;;;20.50;18.75;;;;;18.54;46.05;101483.34;4993435;28;49824;-64
2022/05/15 01:08:09;;;;;;;;;22.50;20.00;;;;;18.52;46.28;101499.25;4993611;28;49516;-63
2022/05/15 01:10:37;;;;;;;;;15.75;15.50;;;;;18.50;46.38;101493.06;4993685;28;49574;-63
2022/05/15 01:13:03;;;;;;;;;14.75;14.00;;;;;18.51;46.32;101488.63;4993431;28;50426;-65
2022/05/15 01:15:29;;;;;;;;;13.00;13.00;;;;;18.49;46.63;101490.41;4995076;28;49832;-66
2022/05/15 01:17:55;;;;;;;;;9.75;9.75;;;;;18.43;46.99;101496.63;4997229;28;49700;-64
2022/05/15 01:20:24;;;;;;;;;9.50;8.50;;;;;18.37;47.05;101493.09;4996768;28;49938;-63
2022/05/15 01:22:50;;;;;;;;;8.00;8.00;;;;;18.39;47.04;101493.97;4996773;28;50509;-64
2022/05/15 01:25:19;;;;;;;;;8.25;7.00;;;;;18.28;47.22;101470.03;4995872;28;49748;-67
2022/05/15 01:27:51;;;;;;;;;6.00;6.00;;;;;18.40;47.43;101480.66;4996830;28;49880;-63
2022/05/15 01:30:17;;;;;;;;;4.00;2.00;;;;;18.41;47.54;101484.19;4996758;28;49769;-65
2022/05/15 01:32:42;;;;;;;;;4.00;4.00;;;;;18.34;47.59;101478.03;4996661;28;49658;-64
2022/05/15 01:35:08;;;;;;;;;7.00;5.50;;;;;18.33;47.77;101488.63;4996561;28;49789;-63
2022/05/15 01:37:33;;;;;;;;;5.75;5.75;;;;;18.34;47.88;101485.13;4996489;28;49460;-62
2022/05/15 01:39:58;;;;;;;;;8.50;6.00;;;;;18.32;47.76;101469.13;4996988;28;49780;-64
2022/05/15 01:42:24;;;;;;;;;9.00;6.00;;;;;18.30;47.77;101484.19;4996279;28;50483;-65
2022/05/15 01:44:50;;;;;;;;;7.00;6.00;;;;;18.21;48.30;101473.56;4996634;28;49741;-63
2022/05/15 01:47:16;;;;;;;;;6.00;5.25;;;;;18.19;48.43;101470.03;4996234;28;49808;-62
2022/05/15 01:49:41;;;;;;;;;5.00;5.00;;;;;18.16;48.31;101465.59;4996467;28;49678;-65
2022/05/15 01:52:07;;;;;;;;;1.75;1.75;;;;;18.20;48.32;101467.38;4995946;28;50450;-63
2022/05/15 01:54:32;;;;;;;;;5.00;5.00;;;;;18.20;48.56;101469.13;4996422;28;49935;-64
2022/05/15 01:56:58;;;;;;;;;9.75;6.00;;;;;18.23;48.65;101474.44;4996432;28;49915;-63
2022/05/15 01:59:23;;;;;;;;;5.25;5.25;;;;;18.21;48.67;101469.13;4996452;28;49753;-65
2022/05/15 02:01:48;;;;;;;;;6.00;6.00;;;;;18.17;48.76;101466.50;4995729;28;49702;-63
2022/05/15 02:04:14;;;;;;;;;5.75;5.75;;;;;18.14;48.97;101458.50;4996149;28;49625;-66
2022/05/15 02:06:39;;;;;;;;;4.00;4.00;;;;;18.11;49.00;101450.53;4996262;28;49735;-69
2022/05/15 02:09:06;;;;;;;;;5.25;5.25;;;;;18.09;49.26;101447.88;4996207;28;49909;-65
2022/05/15 02:11:31;;;;;;;;;5.75;5.75;;;;;18.07;49.42;101447.00;4996266;28;49735;-72
2022/05/15 02:13:57;;;;;;;;;5.50;5.25;;;;;17.87;49.56;101425.72;4995781;28;49916;-71
2022/05/15 02:16:22;;;;;;;;;3.75;3.75;;;;;18.00;49.70;101439.91;4995753;28;49745;-67
2022/05/15 02:18:48;;;;;;;;;5.00;5.00;;;;;17.89;49.78;101429.25;4996428;28;49788;-72
2022/05/15 02:21:13;;;;;;;;;5.00;4.75;;;;;17.82;49.75;101422.16;4995697;28;50748;-69
2022/05/15 02:23:38;;;;;;;;;5.00;5.00;;;;;17.93;50.00;101431.03;4995490;28;49484;-64
2022/05/15 02:26:03;;;;;;;;;5.50;5.50;;;;;17.94;49.91;101426.59;4994868;28;49594;-63
2022/05/15 02:28:29;;;;;;;;;5.00;5.00;;;;;17.98;49.80;101428.38;4996038;28;49833;-66
2022/05/15 02:30:54;;;;;;;;;4.75;4.75;;;;;17.96;49.64;101432.81;4995695;28;50319;-73
2022/05/15 02:33:20;;;;;;;;;5.25;5.00;;;;;17.96;49.73;101423.09;4995955;28;49810;-69
2022/05/15 02:35:46;;;;;;;;;6.25;5.25;;;;;17.97;49.75;101426.63;4995227;28;49753;-69
2022/05/15 02:38:11;;;;;;;;;5.00;5.00;;;;;17.96;49.90;101436.34;4995751;28;49933;-64
2022/05/15 02:40:37;;;;;;;;;6.00;6.00;;;;;17.89;50.03;101436.34;4995597;28;49715;-63
2022/05/15 02:43:02;;;;;;;;;6.00;5.75;;;;;17.90;49.76;101438.13;4995679;28;49586;-66
2022/05/15 02:45:28;;;;;;;;;4.00;4.00;;;;;17.81;49.84;101425.69;4995820;28;49647;-71
2022/05/15 02:47:53;;;;;;;;;7.75;7.25;;;;;17.86;50.14;101445.19;4995823;28;49869;-71
2022/05/15 02:53:04;;;;;;;;;5.00;5.00;;;;;17.77;49.92;101434.56;4995679;28;49850;-70
2022/05/15 02:55:30;;;;;;;;;6.00;5.75;;;;;17.87;50.02;101454.94;4995592;28;49564;-72
2022/05/15 02:57:56;;;;;;;;;6.50;5.75;;;;;17.88;50.02;101453.16;4995440;28;49828;-63
2022/05/15 03:00:24;;;;;;;;;3.25;2.25;;;;;17.77;49.95;101431.03;4995449;28;49644;-62
2022/05/15 03:02:50;;;;;;;;;4.50;4.50;;;;;17.90;49.91;101451.41;4995325;28;49623;-63
2022/05/15 03:05:17;;;;;;;;;5.00;5.00;;;;;17.72;49.98;101431.00;4994978;28;49939;-64
2022/05/15 03:07:43;;;;;;;;;4.75;4.00;;;;;17.81;49.97;101438.09;4995331;28;50077;-63
2022/05/15 03:10:11;;;;;;;;;5.00;5.00;;;;;17.81;49.98;101435.44;4994808;28;50283;-63
2022/05/15 03:12:36;;;;;;;;;6.25;4.75;;;;;17.78;49.27;101414.19;4995018;28;49827;-62
2022/05/15 03:15:02;;;;;;;;;4.00;4.00;;;;;17.80;49.91;101436.31;4995348;28;49488;-63
2022/05/15 03:17:28;;;;;;;;;4.75;4.75;;;;;17.80;49.91;101423.06;4995416;28;49769;-63
2022/05/15 03:19:53;;;;;;;;;6.50;5.00;;;;;17.72;50.15;101421.25;4995007;28;50086;-63
2022/05/15 03:22:18;;;;;;;;;4.50;3.25;;;;;17.72;49.88;101428.34;4994762;28;49875;-64
2022/05/15 03:24:44;;;;;;;;;5.50;4.75;;;;;17.68;50.18;101424.78;4995012;28;51086;-63
2022/05/15 03:27:09;;;;;;;;;4.00;3.00;;;;;17.66;50.04;101415.91;4995315;28;49734;-64
2022/05/15 03:29:35;;;;;;;;;5.00;4.00;;;;;17.52;50.17;101388.44;4994307;28;53718;-63
2022/05/15 03:32:00;;;;;;;;;5.50;5.00;;;;;17.64;49.86;101412.34;4994778;28;49757;-71
2022/05/15 03:34:26;;;;;;;;;4.00;4.00;;;;;17.61;50.10;101407.03;4994478;28;49832;-72
2022/05/15 03:36:52;;;;;;;;;5.00;5.00;;;;;17.64;49.96;101404.38;4995056;28;49656;-72
2022/05/15 03:39:19;;;;;;;;;6.00;6.00;;;;;17.64;49.93;101401.72;4994206;28;51379;-72
2022/05/15 03:41:46;;;;;;;;;6.25;5.50;;;;;17.63;49.90;101399.06;4993855;28;49747;-72
2022/05/15 03:44:12;;;;;;;;;4.75;4.00;;;;;17.57;50.27;101401.75;4994400;28;49951;-66
2022/05/15 03:46:37;;;;;;;;;4.00;4.00;;;;;17.57;50.25;101407.03;4994304;28;49810;-66
2022/05/15 03:49:03;;;;;;;;;8.25;5.25;;;;;17.61;50.37;101411.47;4993849;28;50232;-65
2022/05/15 03:51:28;;;;;;;;;7.00;5.50;;;;;17.57;50.08;101399.97;4994787;28;49597;-63
2022/05/15 03:53:53;;;;;;;;;4.25;4.25;;;;;17.56;49.91;101394.63;4994780;28;49472;-63
2022/05/15 03:56:49;;;;;;;;;4.00;4.00;;;;;17.52;50.23;101399.06;4994558;28;49803;-69
2022/05/15 03:59:06;;;;;;;;;4.25;3.25;;;;;17.52;50.09;101388.44;4993866;28;49746;-71
2022/05/15 04:01:31;;;;;;;;;7.75;4.75;;;;;17.45;50.32;101391.94;4994372;28;49753;-69
2022/05/15 04:03:58;;;;;;;;;5.00;3.75;;;;;17.34;50.19;101369.81;4994359;28;49989;-70
2022/05/15 04:06:23;;;;;;;;;4.75;4.75;;;;;17.48;50.11;101391.09;4994648;28;49596;-69
2022/05/15 04:08:51;;;;;;;;;4.00;2.75;;;;;17.41;50.48;101371.59;4993871;28;52464;-67
2022/05/15 04:11:17;;;;;;;;;6.50;4.50;;;;;17.48;50.42;101388.44;4993867;28;49839;-72
2022/05/15 04:13:42;;;;;;;;;4.75;4.75;;;;;17.47;50.14;101390.22;4994431;28;49618;-66
2022/05/15 04:16:09;;;;;;;;;5.75;5.00;;;;;17.43;50.36;101386.66;4994185;28;49988;-73
2022/05/15 04:18:35;;;;;;;;;6.25;5.00;;;;;17.31;50.24;101377.78;4993762;28;50258;-73
2022/05/15 04:21:00;;;;;;;;;3.75;3.00;;;;;17.43;50.13;101391.94;4993715;28;49685;-73
2022/05/15 04:23:26;;;;;;;;;6.00;5.00;;;;;17.42;50.40;101389.28;4993555;28;49836;-72
2022/05/15 04:25:51;;;;;;;;;5.00;4.50;;;;;17.41;50.11;101391.06;4994451;28;49535;-72
2022/05/15 04:28:17;;;;;;;;;3.50;3.25;;;;;17.41;50.01;101398.16;4993910;28;49718;-65
2022/05/15 04:30:42;;;;;;;;;5.50;4.50;;;;;17.31;50.21;101377.78;4993459;28;49617;-69
2022/05/15 04:33:07;;;;;;;;;5.00;4.00;;;;;17.36;50.07;101383.97;4993603;28;49678;-74
2022/05/15 04:35:34;;;;;;;;;5.50;5.25;;;;;17.39;50.39;101386.66;4993664;28;50067;-73
2022/05/15 04:37:59;;;;;;;;;5.75;4.50;;;;;17.28;50.38;101369.81;4993454;28;50543;-69
2022/05/15 04:40:25;;;;;;;;;5.00;5.00;;;;;17.35;50.26;101379.53;4993365;28;49477;-66
2022/05/15 04:42:50;;;;;;;;;8.50;6.75;;;;;17.30;50.45;101376.00;4993457;28;49717;-72
2022/05/15 04:45:16;;;;;;;;;5.00;5.00;;;;;17.30;50.29;101384.84;4993826;28;49508;-73
2022/05/15 04:47:46;;;;;;;;;6.00;6.00;;;;;17.27;50.30;101387.47;4993380;28;49649;-70
2022/05/15 04:50:14;;;;;;;;;5.25;5.25;;;;;17.26;50.51;101387.47;4992154;28;49915;-68
2022/05/15 04:52:39;;;;;;;;;7.00;5.50;;;;;17.24;50.37;101391.91;4993154;28;49867;-72
2022/05/15 04:55:05;;;;;;;;;4.00;4.00;;;;;17.23;50.10;101385.69;4993907;28;49786;-65
2022/05/15 04:57:31;;;;;;;;;7.50;5.00;;;;;17.25;50.38;101398.97;4993539;28;49573;-69
2022/05/15 04:59:56;;;;;;;;;6.00;6.00;;;;;17.17;50.24;101377.72;4993691;28;49551;-71
2022/05/15 05:02:21;;;;;;;;;5.00;5.00;;;;;17.31;50.30;101401.66;4975676;28;49718;-72
2022/05/15 05:04:47;;;;;;;;;3.50;3.50;;;;;17.28;50.30;101399.88;4991790;28;49888;-73
2022/05/15 05:07:12;;;;;;;;;6.75;6.50;;;;;17.35;50.59;101401.66;4993367;28;49694;-66
2022/05/15 05:09:38;;;;;;;;;5.50;5.50;;;;;17.24;50.31;101379.50;4993541;28;49738;-66
2022/05/15 05:12:03;;;;;;;;;5.50;3.00;;;;;17.49;50.35;101404.38;4993285;28;49531;-64
2022/05/15 05:14:29;;;;;;;;;4.00;4.00;;;;;17.51;49.91;101402.59;4993792;28;49587;-64
2022/05/15 05:16:54;;;;;;;;;7.25;6.50;;;;;17.50;50.02;101400.81;4993510;28;51265;-62
2022/05/15 05:19:19;;;;;;;;;4.00;4.00;;;;;17.51;49.83;101405.25;4993033;28;49778;-65
2022/05/15 05:21:45;;;;;;;;;9.50;5.75;;;;;17.50;49.96;101403.47;4992976;28;49786;-63
2022/05/15 05:24:10;;;;;;;;;6.25;5.75;;;;;17.51;49.89;101413.22;4992414;28;49750;-70
2022/05/15 05:26:35;;;;;;;;;6.25;4.75;;;;;17.36;49.96;101387.50;4993208;28;50584;-64
2022/05/15 05:29:01;;;;;;;;;4.50;4.50;;;;;17.46;49.95;101399.91;4993413;28;49734;-72
2022/05/15 05:31:27;;;;;;;;;6.00;5.25;;;;;17.38;50.07;101387.53;4993500;28;49783;-71
2022/05/15 05:33:52;;;;;;;;;4.75;4.00;;;;;17.46;50.14;101409.66;4993037;28;49833;-68
2022/05/15 05:36:17;;;;;;;;;7.25;5.00;;;;;17.45;50.38;101405.22;4992937;28;49642;-74
2022/05/15 05:38:45;;;;;;;;;5.75;5.75;;;;;17.48;50.23;101404.38;4993100;28;49749;-73
2022/05/15 05:41:10;;;;;;;;;5.25;5.25;;;;;17.48;50.40;101404.38;4992598;28;49655;-67
2022/05/15 05:43:35;;;;;;;;;4.50;4.50;;;;;17.50;50.17;101407.91;4992528;28;49872;-67
2022/05/15 05:46:00;;;;;;;;;6.75;5.00;;;;;17.40;50.41;101380.44;4992661;28;49729;-66
2022/05/15 05:48:26;;;;;;;;;4.75;4.00;;;;;17.55;50.13;101406.13;4993006;28;49680;-64
2022/05/15 05:50:51;;;;;;;;;4.25;4.25;;;;;17.57;50.20;101402.63;4992896;28;49482;-63
2022/05/15 05:53:17;;;;;;;;;6.50;5.75;;;;;17.59;50.41;101399.97;4993170;28;49685;-63
2022/05/15 05:55:43;;;;;;;;;5.00;5.00;;;;;17.57;50.34;101393.78;4992996;28;49824;-64
2022/05/15 05:58:08;;;;;;;;;4.00;4.00;;;;;17.58;50.31;101390.22;4992914;28;49644;-64
2022/05/15 06:00:40;;;;;;;;;8.25;6.25;;;;;17.68;50.18;101397.34;4992958;28;49504;-69
2022/05/15 06:05:50;;;;;;;;;7.00;5.25;;;;;17.82;50.00;101403.56;4995785;28;49733;-64
2022/05/15 06:08:17;;;;;;;;;4.50;4.50;;;;;17.91;50.08;101405.34;4995660;28;49593;-68
2022/05/15 06:10:43;;;;;;;;;5.75;5.75;;;;;18.00;49.67;101400.03;4996329;28;49838;-63
2022/05/15 06:13:09;;;;;;;;;4.50;4.50;;;;;18.07;49.55;101406.25;4996528;28;49597;-67
2022/05/15 06:15:35;;;;;;;;;5.00;5.00;;;;;18.03;49.24;101384.09;4995877;28;50588;-63
2022/05/15 06:18:03;;;;;;;;;5.25;4.00;;;;;18.25;49.11;101395.63;4995373;28;49830;-63
2022/05/15 06:20:29;;;;;;;;;4.00;4.00;;;;;18.19;48.74;101380.56;4996301;28;49759;-64
2022/05/15 06:22:55;;;;;;;;;7.00;7.00;;;;;18.37;49.03;101390.28;4995728;28;49723;-63
2022/05/15 06:25:20;;;;;;;;;6.75;6.25;;;;;18.61;48.16;101397.31;4994603;28;49613;-63
2022/05/15 06:27:46;;;;;;;;;4.25;4.25;;;;;18.61;48.33;101397.31;4995845;28;49768;-64
2022/05/15 06:30:12;;;;;;;;;6.00;6.00;;;;;18.65;47.95;101391.16;4995985;28;50130;-63
2022/05/15 06:32:39;;;;;;;;;5.50;5.50;;;;;18.66;47.97;101389.38;4996023;28;49968;-63
2022/05/15 06:35:08;;;;;;;;;5.00;5.00;;;;;18.78;47.65;101387.56;4995861;28;49893;-63
2022/05/15 06:37:33;;;;;;;;;6.25;5.75;;;;;18.90;47.67;101391.97;4995230;28;49877;-63
2022/05/15 06:39:59;;;;;;;;;5.00;5.00;;;;;18.96;47.25;101394.63;4995688;28;49827;-63
2022/05/15 06:42:25;;;;;;;;;9.50;7.00;;;;;18.94;46.84;101384.88;4977774;28;49915;-62
2022/05/15 06:44:51;;;;;;;;;7.00;7.00;;;;;18.68;47.03;101337.97;4995397;28;50261;-63
2022/05/15 06:47:16;;;;;;;;;5.75;5.75;;;;;19.17;46.45;101390.97;4995295;28;49758;-63
2022/05/15 06:49:41;;;;;;;;;7.75;7.75;;;;;19.14;46.60;101402.53;4995355;28;49648;-62
2022/05/15 06:52:07;;;;;;;;;8.25;5.00;;;;;19.18;46.67;101398.06;4974016;28;49768;-66
2022/05/15 06:54:33;;;;;;;;;9.25;8.75;;;;;19.25;46.93;101399.81;4986344;28;50397;-64
2022/05/15 06:59:42;;;;;;;;;6.75;5.00;;;;;19.42;46.19;101397.06;4995782;28;49868;-67
2022/05/15 07:02:07;;;;;;;;;6.50;6.00;;;;;19.48;45.76;101390.81;4995153;28;50391;-71
2022/05/15 07:04:33;;;;;;;;;4.50;4.50;;;;;19.63;45.37;101389.00;4995281;28;50391;-63
2022/05/15 07:06:58;;;;;;;;;7.00;6.25;;;;;19.68;45.55;101379.16;4994999;28;49639;-70
2022/05/15 07:09:23;;;;;;;;;5.75;5.75;;;;;19.71;45.40;101379.16;4994820;28;49590;-63
2022/05/15 07:11:49;;;;;;;;;6.50;6.25;;;;;19.71;44.90;101370.28;4994610;28;49648;-69
2022/05/15 07:14:14;;;;;;;;;8.25;6.75;;;;;19.76;45.16;101376.47;4994357;28;55123;-63
2022/05/15 07:16:40;;;;;;;;;7.50;7.50;;;;;19.84;45.49;101355.97;4995239;28;50859;-69
2022/05/15 07:19:06;;;;;;;;;6.75;6.00;;;;;20.04;45.39;101353.16;4994927;28;49697;-62
2022/05/15 07:21:32;;;;;;;;;8.25;6.75;;;;;20.21;45.10;101353.88;4993923;28;49741;-72
2022/05/15 07:23:57;;;;;;;;;7.00;7.00;;;;;20.33;44.82;101354.66;4996522;28;49803;-66
2022/05/15 07:26:24;;;;;;;;;8.50;7.00;;;;;20.37;44.58;101351.97;4995019;28;49575;-63
2022/05/15 07:28:51;;;;;;;;;8.00;7.50;;;;;20.37;44.77;101348.41;4995248;28;49767;-70
2022/05/15 07:31:20;;;;;;;;;6.75;6.25;;;;;20.36;44.52;101343.94;4995250;28;49804;-67
2022/05/15 07:33:47;;;;;;;;;8.25;8.25;;;;;20.43;44.00;101338.56;4994995;28;49775;-65
2022/05/15 07:36:12;;;;;;;;;5.00;5.00;;;;;20.46;43.60;101337.66;4998161;28;49868;-64
2022/05/15 07:38:38;;;;;;;;;6.00;4.75;;;;;20.50;43.85;101336.75;4994949;28;49733;-72
2022/05/15 07:41:04;;;;;;;;;7.50;6.75;;;;;20.49;43.79;101330.53;4994984;28;49736;-73
2022/05/15 07:43:30;;;;;;;;;7.00;6.00;;;;;20.57;43.77;101342.00;4994619;28;50768;-71
2022/05/15 07:45:55;;;;;;;;;7.75;6.75;;;;;20.64;43.72;101336.56;4998974;28;49594;-63
2022/05/15 07:48:20;;;;;;;;;6.00;5.75;;;;;20.74;43.54;101338.22;4998913;28;50017;-66
2022/05/15 07:50:46;;;;;;;;;6.00;6.00;;;;;20.65;43.18;101319.66;5005714;28;49502;-63
2022/05/15 07:53:11;;;;;;;;;7.25;6.25;;;;;20.80;44.00;101323.03;4994638;28;51173;-64
2022/05/15 07:55:37;;;;;;;;;7.25;5.75;;;;;20.92;42.53;101323.78;5004654;28;49622;-66
2022/05/15 07:58:03;;;;;;;;;6.75;6.75;;;;;21.04;42.55;101315.63;5004787;28;49724;-72
2022/05/15 08:00:28;;;;;;;;;7.00;6.00;;;;;21.12;42.46;101313.72;5014776;28;49646;-65
2022/05/15 08:03:20;;;;;;;;;7.00;5.25;;;;;21.04;42.56;101284.47;4996474;28;50129;-69
2022/05/15 08:08:29;;;;;;;;;6.75;6.75;;;;;21.40;41.57;101308.91;5012672;28;49746;-69
2022/05/15 08:10:55;;;;;;;;;5.75;5.75;;;;;21.50;41.42;101309.63;5014269;28;49776;-72
2022/05/15 08:13:25;;;;;;;;;5.00;5.00;;;;;21.59;41.30;101299.69;5012440;28;49661;-73
2022/05/15 08:15:51;;;;;;;;;4.75;4.75;;;;;21.71;41.22;101291.50;4999779;28;49936;-75
2022/05/15 08:23:51;;;;;;;;;5.75;5.75;;;;;21.59;40.81;101240.91;4991037;28;49871;-67
2022/05/15 08:26:18;;;;;;;;;4.00;4.00;;;;;21.90;40.71;101283.13;4991483;28;49703;-65
2022/05/15 08:28:43;;;;;;;;;4.00;4.00;;;;;21.98;40.43;101271.41;4991763;28;50434;-66
2022/05/15 08:31:09;;;;;;;;;4.75;4.00;;;;;21.98;40.01;101265.16;4992194;28;49994;-67
2022/05/15 08:33:36;;;;;;;;;6.00;6.00;;;;;22.05;39.67;101263.28;4992581;28;49818;-69
2022/05/15 08:36:03;;;;;;;;;9.00;4.25;;;;;22.16;39.86;101266.66;4994010;28;49582;-72
2022/05/15 08:38:29;;;;;;;;;3.75;3.75;;;;;22.21;38.69;101268.34;4994266;28;49606;-69
2022/05/15 08:41:03;;;;;;;;;5.00;5.00;;;;;22.38;39.41;101257.28;4994238;28;49948;-68
2022/05/15 08:44:06;;;;;;;;;4.00;4.00;;;;;22.59;38.86;101256.00;4993742;28;50392;-70
2022/05/15 08:46:49;;;;;;;;;6.75;4.50;;;;;22.68;38.13;101253.13;4993382;28;49690;-66
2022/05/15 08:49:36;;;;;;;;;2.75;2.75;;;;;22.78;37.71;101252.03;4994078;28;49650;-78
2022/05/15 08:52:04;;;;;;;;;4.00;4.00;;;;;22.89;37.62;101258.97;4994081;28;49792;-73
2022/05/15 08:54:34;;;;;;;;;5.00;4.00;;;;;23.00;37.31;101244.41;4993680;28;50376;-74
2022/05/15 08:56:59;;;;;;;;;4.00;4.00;;;;;23.11;37.59;101228.09;4993861;28;49682;-73
2022/05/15 08:59:33;;;;;;;;;3.50;3.50;;;;;23.25;36.50;101242.03;4993833;28;49706;-77
2022/05/15 09:02:00;;;;;;;;;3.75;3.75;;;;;23.36;35.96;101231.09;4993578;28;49643;-77
2022/05/15 09:04:28;;;;;;;;;4.00;3.00;;;;;23.52;36.02;101239.59;4976192;28;52314;-70
2022/05/15 09:07:08;;;;;;;;;3.25;3.25;;;;;23.65;36.10;101235.75;4993303;28;49788;-83
2022/05/15 09:09:40;;;;;;;;;1.00;1.00;;;;;23.78;35.40;101233.63;4993555;28;49997;-79
2022/05/15 09:12:14;;;;;;;;;1.00;1.00;;;;;23.82;34.93;101229.91;4993605;28;50158;-82
2022/05/15 09:14:56;;;;;;;;;1.75;1.75;;;;;23.86;34.83;101229.81;4993344;28;50567;-78
2022/05/15 09:17:30;;;;;;;;;4.00;2.50;;;;;23.92;34.66;101232.31;4993414;28;49833;-78
2022/05/15 09:20:03;;;;;;;;;3.50;3.50;;;;;24.05;34.39;101224.81;4993649;28;49687;-74
2022/05/15 09:22:37;;;;;;;;;3.00;2.25;;;;;24.16;33.91;101221.84;4993174;28;49975;-82
2022/05/15 09:25:19;;;;;;;;;2.75;2.75;;;;;24.16;33.95;101208.44;4993204;28;51642;-83
2022/05/15 09:28:03;;;;;;;;;4.50;3.00;;;;;24.26;32.88;101217.97;4993485;28;49694;-69
2022/05/15 09:30:42;;;;;;;;;5.25;3.00;;;;;24.31;32.92;101220.50;4993477;28;49646;-70
2022/05/15 09:33:24;;;;;;;;;2.50;2.50;;;;;24.38;33.10;101224.81;4993496;28;49699;-66
2022/05/15 09:35:50;;;;;;;;;2.50;2.50;;;;;24.41;33.09;101211.31;4994156;28;50553;-62
2022/05/15 09:38:28;;;;;;;;;3.25;3.25;;;;;24.42;32.97;101213.97;4995987;28;49750;-62
2022/05/15 09:43:49;;;;;;;;;2.75;2.75;;;;;24.52;32.03;101204.72;4995651;28;49841;-62
2022/05/15 09:46:18;;;;;;;;;2.50;2.50;;;;;24.62;32.17;101204.44;4995534;28;49853;-63
2022/05/15 09:49:14;;;;;;;;;4.75;4.75;;;;;24.66;31.47;101198.91;4994170;28;49908;-63
2022/05/15 09:51:47;;;;;;;;;3.00;3.00;;;;;24.75;32.77;101193.28;4993820;28;49814;-62
2022/05/15 09:54:37;;;;;;;;;2.75;2.00;;;;;24.77;31.83;101196.78;4994071;28;50304;-63
2022/05/15 09:57:17;;;;;;;;;2.25;2.25;;;;;24.79;32.71;101197.59;4993212;28;49717;-63
2022/05/15 10:00:00;;;;;;;;;3.25;3.25;;;;;24.84;32.06;101189.41;4993529;28;49930;-63
2022/05/15 10:02:38;;;;;;;;;1.00;1.00;;;;;24.88;32.04;101185.69;4994110;28;49814;-64
2022/05/15 10:05:21;;;;;;;;;2.75;2.75;;;;;24.93;31.53;101172.16;4996411;28;49995;-63
2022/05/15 10:08:01;;;;;;;;;4.00;3.25;;;;;25.04;31.91;101184.31;4995927;28;51231;-63
2022/05/15 10:10:30;;;;;;;;;2.00;2.00;;;;;25.06;31.88;101166.34;4996274;28;49630;-63
2022/05/15 10:13:01;;;;;;;;;3.75;3.75;;;;;25.11;32.08;101163.53;4996287;28;49731;-62
2022/05/15 10:15:35;;;;;;;;;2.75;2.75;;;;;25.11;31.66;101172.47;4996438;28;49908;-62
2022/05/15 10:18:03;;;;;;;;;3.50;3.25;;;;;25.14;31.64;101166.09;4996017;28;49623;-62
2022/05/15 10:20:34;;;;;;;;;3.00;3.00;;;;;25.21;31.76;101158.72;4995866;28;49745;-62
2022/05/15 10:23:13;;;;;;;;;2.00;2.00;;;;;25.17;31.98;101136.44;4995998;28;49906;-69
2022/05/15 10:25:47;;;;;;;;;2.00;2.00;;;;;25.35;32.14;101157.31;4996241;28;49841;-62
2022/05/15 10:28:35;;;;;;;;;2.50;2.50;;;;;25.26;31.62;101129.88;4996022;28;50380;-62
2022/05/15 10:31:43;;;;;;;;;1.75;1.75;;;;;25.45;30.83;101147.13;4996036;28;49663;-65
2022/05/15 10:34:13;;;;;;;;;2.50;2.50;;;;;25.49;29.86;101143.41;4897178;29;49896;-63
2022/05/15 10:36:46;;;;;;;;;2.00;2.00;;;;;25.48;29.80;101138.97;4897053;29;49790;-63
2022/05/15 10:39:30;;;;;;;;;3.75;3.75;;;;;25.47;29.62;101142.56;4952998;28;49760;-63
2022/05/15 10:42:04;;;;;;;;;3.50;2.75;;;;;25.57;29.70;101141.31;4995887;28;49757;-64
2022/05/15 10:44:39;;;;;;;;;3.25;3.25;;;;;25.65;30.20;101136.53;4995811;28;49791;-63
2022/05/15 10:47:25;;;;;;;;;3.00;3.00;;;;;25.64;29.37;101129.41;4994832;28;49669;-63
2022/05/15 10:50:07;;;;;;;;;3.00;2.00;;;;;25.71;30.13;101137.31;4995504;28;50451;-63
2022/05/15 10:52:38;;;;;;;;;3.00;3.00;;;;;25.77;29.28;101132.59;4995404;28;49750;-61
2022/05/15 10:58:24;;;;;;;;;2.00;2.00;;;;;25.88;29.53;101130.38;4987195;28;49816;-61
2022/05/15 11:01:39;;;;;;;;;4.00;4.00;;;;;25.91;29.76;101127.56;4995412;28;50467;-61
2022/05/15 11:04:13;;;;;;;;;4.00;3.50;;;;;25.94;30.02;101111.31;4995405;28;49782;-61
2022/05/15 11:07:03;;;;;;;;;4.25;3.25;;;;;26.09;30.12;101117.94;4995352;28;49737;-61
2022/05/15 11:09:44;;;;;;;;;3.00;2.75;;;;;26.17;29.92;101121.22;4995647;28;49715;-60
2022/05/15 11:12:35;;;;;;;;;4.00;4.00;;;;;26.19;30.01;101124.72;4995160;28;51427;-62
2022/05/15 11:15:31;;;;;;;;;3.75;3.75;;;;;26.18;29.90;101108.66;4995417;28;49969;-61
2022/05/15 11:18:21;;;;;;;;;3.50;3.50;;;;;26.18;29.73;101109.53;4993706;28;49769;-68
2022/05/15 11:20:53;;;;;;;;;1.50;1.50;;;;;26.15;29.15;101095.28;4989463;28;49797;-61
2022/05/15 11:23:24;;;;;;;;;7.75;2.50;;;;;26.24;29.93;101108.38;4994354;28;49747;-64
2022/05/15 11:25:57;;;;;;;;;2.75;2.75;;;;;26.16;29.85;101083.63;4994677;28;49816;-61
2022/05/15 11:28:42;;;;;;;;;3.25;2.75;;;;;26.29;28.92;101102.84;4977385;28;49856;-60
2022/05/15 11:31:15;;;;;;;;;4.00;3.50;;;;;26.15;28.00;101071.06;4989743;28;49832;-61
2022/05/15 11:33:43;;;;;;;;;5.25;5.25;;;;;26.37;27.61;101089.97;4994534;28;49794;-63
2022/05/15 11:36:13;;;;;;;;;3.00;3.00;;;;;26.47;28.22;101086.00;4994234;28;49916;-61
2022/05/15 11:38:58;;;;;;;;;2.25;2.25;;;;;26.16;28.04;101035.19;4994751;28;49736;-64
2022/05/15 11:41:36;;;;;;;;;1.00;1.00;;;;;26.50;27.74;101085.88;4995062;28;50113;-60
2022/05/15 11:44:07;;;;;;;;;3.00;3.00;;;;;26.47;27.99;101083.31;4994308;28;50773;-62
2022/05/15 11:46:45;;;;;;;;;2.00;2.00;;;;;26.56;27.85;101071.31;4994535;28;49725;-62
2022/05/15 11:49:32;;;;;;;;;3.00;3.00;;;;;26.61;28.78;101064.78;4994396;28;49891;-63
2022/05/15 11:52:05;;;;;;;;;3.50;3.50;;;;;26.70;27.90;101066.22;4994277;28;49743;-63
2022/05/15 11:54:36;;;;;;;;;4.50;4.50;;;;;26.60;27.38;101046.88;4994122;28;51519;-62
2022/05/15 11:57:04;;;;;;;;;2.75;2.75;;;;;26.80;27.73;101063.06;4994173;28;49585;-56